sensor_id;sensor_type;location;lat;lon;timestamp;temperature;humidity
29237;DHT22;16266;50.866;4.398;2022-12-16T00:02:29;1.10;99.90
29237;DHT22;16266;50.866;4.398;2022-12-16T00:04:59;1.10;99.90
29237;DHT22;16266;50.866;4.398;2022-12-16T00:07:24;1.00;99.90
29237;DHT22;16266;50.866;4.398;2022-12-16T00:09:50;1.10;99.90
29237;DHT22;16266;50.866;4.398;2022-12-16T00:12:15;1.10;99.90
29237;DHT22;16266;50.866;4.398;2022-12-16T00:14:41;1.20;99.90
29237;DHT22;16266;50.866;4.398;2022-12-16T00:17:07;1.30;99.90
29237;DHT22;16266;50.866;4.398;2022-12-16T00:19:32;1.40;99.90
29237;DHT22;16266;50.866;4.398;2022-12-16T00:21:58;1.50;99.90
29237;DHT22;16266;50.866;4.398;2022-12-16T00:24:24;1.70;99.90
29237;DHT22;16266;50.866;4.398;2022-12-16T00:26:49;1.80;99.90
29237;DHT22;16266;50.866;4.398;2022-12-16T00:29:15;1.90;99.90
29237;DHT22;16266;50.866;4.398;2022-12-16T00:31:42;2.20;99.90
29237;DHT22;16266;50.866;4.398;2022-12-16T00:34:12;2.30;99.90
29237;DHT22;16266;50.866;4.398;2022-12-16T00:36:38;2.60;99.90
29237;DHT22;16266;50.866;4.398;2022-12-16T00:39:04;2.60;99.90
29237;DHT22;16266;50.866;4.398;2022-12-16T00:41:29;2.80;99.90
29237;DHT22;16266;50.866;4.398;2022-12-16T00:43:55;3.00;99.90
29237;DHT22;16266;50.866;4.398;2022-12-16T00:46:20;3.00;99.90
29237;DHT22;16266;50.866;4.398;2022-12-16T00:48:46;2.80;99.90
29237;DHT22;16266;50.866;4.398;2022-12-16T00:51:12;2.80;99.90
29237;DHT22;16266;50.866;4.398;2022-12-16T00:53:37;2.90;99.90
29237;DHT22;16266;50.866;4.398;2022-12-16T00:56:08;3.10;99.90
29237;DHT22;16266;50.866;4.398;2022-12-16T00:58:35;3.00;99.90
29237;DHT22;16266;50.866;4.398;2022-12-16T01:01:01;3.00;99.90
29237;DHT22;16266;50.866;4.398;2022-12-16T01:03:27;3.10;99.90
29237;DHT22;16266;50.866;4.398;2022-12-16T01:05:53;3.10;99.90
29237;DHT22;16266;50.866;4.398;2022-12-16T01:08:19;3.00;99.90
29237;DHT22;16266;50.866;4.398;2022-12-16T01:10:52;3.10;99.90
29237;DHT22;16266;50.866;4.398;2022-12-16T01:13:19;3.20;99.90
29237;DHT22;16266;50.866;4.398;2022-12-16T01:15:45;3.20;99.90
29237;DHT22;16266;50.866;4.398;2022-12-16T01:18:11;3.10;99.90
29237;DHT22;16266;50.866;4.398;2022-12-16T01:20:36;2.90;99.90
29237;DHT22;16266;50.866;4.398;2022-12-16T01:23:03;2.70;99.90
29237;DHT22;16266;50.866;4.398;2022-12-16T01:25:29;2.70;99.90
29237;DHT22;16266;50.866;4.398;2022-12-16T01:27:55;2.40;99.90
29237;DHT22;16266;50.866;4.398;2022-12-16T01:30:21;2.30;99.90
29237;DHT22;16266;50.866;4.398;2022-12-16T01:32:47;2.40;99.90
29237;DHT22;16266;50.866;4.398;2022-12-16T01:35:12;2.40;99.90
29237;DHT22;16266;50.866;4.398;2022-12-16T01:37:39;2.30;99.90
29237;DHT22;16266;50.866;4.398;2022-12-16T01:40:05;2.40;99.90
29237;DHT22;16266;50.866;4.398;2022-12-16T01:42:31;2.50;99.90
29237;DHT22;16266;50.866;4.398;2022-12-16T01:47:51;2.40;99.90
29237;DHT22;16266;50.866;4.398;2022-12-16T01:50:19;2.50;99.90
29237;DHT22;16266;50.866;4.398;2022-12-16T01:52:48;2.40;99.90
29237;DHT22;16266;50.866;4.398;2022-12-16T01:55:18;2.40;99.90
29237;DHT22;16266;50.866;4.398;2022-12-16T01:57:49;2.20;99.90
29237;DHT22;16266;50.866;4.398;2022-12-16T02:00:16;2.20;99.90
29237;DHT22;16266;50.866;4.398;2022-12-16T02:02:43;2.30;99.90
29237;DHT22;16266;50.866;4.398;2022-12-16T02:05:16;2.30;99.90
29237;DHT22;16266;50.866;4.398;2022-12-16T02:08:10;2.50;99.90
29237;DHT22;16266;50.866;4.398;2022-12-16T02:18:52;3.00;99.90
29237;DHT22;16266;50.866;4.398;2022-12-16T02:39:27;3.80;99.90
29237;DHT22;16266;50.866;4.398;2022-12-16T02:44:38;3.90;99.90
29237;DHT22;16266;50.866;4.398;2022-12-16T02:47:05;4.00;99.90
29237;DHT22;16266;50.866;4.398;2022-12-16T02:51:57;3.70;99.90
29237;DHT22;16266;50.866;4.398;2022-12-16T02:54:25;3.80;99.90
29237;DHT22;16266;50.866;4.398;2022-12-16T03:00:21;3.90;99.90
29237;DHT22;16266;50.866;4.398;2022-12-16T03:05:27;4.00;99.90
29237;DHT22;16266;50.866;4.398;2022-12-16T03:07:56;4.10;99.90
29237;DHT22;16266;50.866;4.398;2022-12-16T03:10:26;4.20;99.90
29237;DHT22;16266;50.866;4.398;2022-12-16T03:12:54;4.30;99.90
29237;DHT22;16266;50.866;4.398;2022-12-16T03:15:22;4.30;99.90
29237;DHT22;16266;50.866;4.398;2022-12-16T03:17:51;4.30;99.90
29237;DHT22;16266;50.866;4.398;2022-12-16T03:20:23;4.30;99.90
29237;DHT22;16266;50.866;4.398;2022-12-16T03:22:53;4.20;99.90
29237;DHT22;16266;50.866;4.398;2022-12-16T03:25:20;4.20;99.90
29237;DHT22;16266;50.866;4.398;2022-12-16T03:30:50;4.40;99.90
29237;DHT22;16266;50.866;4.398;2022-12-16T03:33:25;4.50;99.90
29237;DHT22;16266;50.866;4.398;2022-12-16T03:35:58;4.30;99.90
29237;DHT22;16266;50.866;4.398;2022-12-16T03:38:27;4.40;99.90
29237;DHT22;16266;50.866;4.398;2022-12-16T03:40:54;4.40;99.90
29237;DHT22;16266;50.866;4.398;2022-12-16T03:43:22;4.30;99.90
29237;DHT22;16266;50.866;4.398;2022-12-16T03:45:51;4.30;99.90
29237;DHT22;16266;50.866;4.398;2022-12-16T03:48:22;4.30;99.90
29237;DHT22;16266;50.866;4.398;2022-12-16T03:50:50;4.20;99.90
29237;DHT22;16266;50.866;4.398;2022-12-16T03:53:16;4.20;99.90
29237;DHT22;16266;50.866;4.398;2022-12-16T03:55:43;4.00;99.90
29237;DHT22;16266;50.866;4.398;2022-12-16T03:58:09;4.10;99.90
29237;DHT22;16266;50.866;4.398;2022-12-16T04:00:35;4.10;99.90
29237;DHT22;16266;50.866;4.398;2022-12-16T04:03:01;4.30;99.90
29237;DHT22;16266;50.866;4.398;2022-12-16T04:05:26;4.00;99.90
29237;DHT22;16266;50.866;4.398;2022-12-16T04:07:52;3.60;99.90
29237;DHT22;16266;50.866;4.398;2022-12-16T04:10:18;3.60;99.90
29237;DHT22;16266;50.866;4.398;2022-12-16T04:13:08;3.50;99.90
29237;DHT22;16266;50.866;4.398;2022-12-16T04:15:53;3.40;99.90
29237;DHT22;16266;50.866;4.398;2022-12-16T04:18:48;2.90;99.90
29237;DHT22;16266;50.866;4.398;2022-12-16T04:21:33;2.80;99.90
29237;DHT22;16266;50.866;4.398;2022-12-16T04:24:18;2.80;99.90
29237;DHT22;16266;50.866;4.398;2022-12-16T04:26:45;2.70;99.90
29237;DHT22;16266;50.866;4.398;2022-12-16T04:29:40;2.50;99.90
29237;DHT22;16266;50.866;4.398;2022-12-16T04:32:32;2.50;99.90
29237;DHT22;16266;50.866;4.398;2022-12-16T04:35:17;2.40;99.90
29237;DHT22;16266;50.866;4.398;2022-12-16T04:38:01;2.40;99.90
29237;DHT22;16266;50.866;4.398;2022-12-16T04:40:46;2.50;99.90
29237;DHT22;16266;50.866;4.398;2022-12-16T04:43:30;2.60;99.90
29237;DHT22;16266;50.866;4.398;2022-12-16T04:46:14;2.70;99.90
29237;DHT22;16266;50.866;4.398;2022-12-16T04:48:58;2.70;99.90
29237;DHT22;16266;50.866;4.398;2022-12-16T04:51:42;2.70;99.90
29237;DHT22;16266;50.866;4.398;2022-12-16T04:54:26;2.70;99.90
29237;DHT22;16266;50.866;4.398;2022-12-16T04:57:10;2.70;99.90
29237;DHT22;16266;50.866;4.398;2022-12-16T04:59:54;2.70;99.90
29237;DHT22;16266;50.866;4.398;2022-12-16T05:02:38;2.80;99.90
29237;DHT22;16266;50.866;4.398;2022-12-16T05:05:27;2.80;99.90
29237;DHT22;16266;50.866;4.398;2022-12-16T05:08:11;2.80;99.90
29237;DHT22;16266;50.866;4.398;2022-12-16T05:10:56;2.70;99.90
29237;DHT22;16266;50.866;4.398;2022-12-16T05:13:40;2.70;99.90
29237;DHT22;16266;50.866;4.398;2022-12-16T05:16:24;2.60;99.90
29237;DHT22;16266;50.866;4.398;2022-12-16T05:19:08;2.50;99.90
29237;DHT22;16266;50.866;4.398;2022-12-16T05:21:52;2.50;99.90
29237;DHT22;16266;50.866;4.398;2022-12-16T05:24:36;2.70;99.90
29237;DHT22;16266;50.866;4.398;2022-12-16T05:27:20;2.70;99.90
29237;DHT22;16266;50.866;4.398;2022-12-16T05:30:06;2.80;99.90
29237;DHT22;16266;50.866;4.398;2022-12-16T05:32:51;2.90;99.90
29237;DHT22;16266;50.866;4.398;2022-12-16T05:35:35;2.90;99.90
29237;DHT22;16266;50.866;4.398;2022-12-16T05:38:19;3.00;99.90
29237;DHT22;16266;50.866;4.398;2022-12-16T05:41:03;2.90;99.90
29237;DHT22;16266;50.866;4.398;2022-12-16T05:43:47;2.90;99.90
29237;DHT22;16266;50.866;4.398;2022-12-16T05:46:31;2.90;99.90
29237;DHT22;16266;50.866;4.398;2022-12-16T05:49:16;3.00;99.90
29237;DHT22;16266;50.866;4.398;2022-12-16T05:52:03;2.90;99.90
29237;DHT22;16266;50.866;4.398;2022-12-16T05:54:47;2.90;99.90
29237;DHT22;16266;50.866;4.398;2022-12-16T05:57:32;3.10;99.90
29237;DHT22;16266;50.866;4.398;2022-12-16T06:00:16;3.20;99.90
29237;DHT22;16266;50.866;4.398;2022-12-16T06:03:00;3.20;99.90
29237;DHT22;16266;50.866;4.398;2022-12-16T06:05:44;3.10;99.90
29237;DHT22;16266;50.866;4.398;2022-12-16T06:08:28;3.10;99.90
29237;DHT22;16266;50.866;4.398;2022-12-16T06:11:12;3.10;99.90
29237;DHT22;16266;50.866;4.398;2022-12-16T06:13:56;3.00;99.90
29237;DHT22;16266;50.866;4.398;2022-12-16T06:16:41;3.00;99.90
29237;DHT22;16266;50.866;4.398;2022-12-16T06:19:25;2.90;99.90
29237;DHT22;16266;50.866;4.398;2022-12-16T06:22:19;3.00;99.90
29237;DHT22;16266;50.866;4.398;2022-12-16T06:25:04;3.00;99.90
29237;DHT22;16266;50.866;4.398;2022-12-16T06:27:52;3.00;99.90
29237;DHT22;16266;50.866;4.398;2022-12-16T06:30:37;2.90;99.90
29237;DHT22;16266;50.866;4.398;2022-12-16T06:33:21;2.70;99.90
29237;DHT22;16266;50.866;4.398;2022-12-16T06:36:06;2.60;99.90
29237;DHT22;16266;50.866;4.398;2022-12-16T06:38:50;2.50;99.90
29237;DHT22;16266;50.866;4.398;2022-12-16T06:41:34;2.40;99.90
29237;DHT22;16266;50.866;4.398;2022-12-16T06:44:18;2.30;99.90
29237;DHT22;16266;50.866;4.398;2022-12-16T06:47:02;2.20;99.90
29237;DHT22;16266;50.866;4.398;2022-12-16T06:49:46;2.20;99.90
29237;DHT22;16266;50.866;4.398;2022-12-16T06:52:30;2.10;99.90
29237;DHT22;16266;50.866;4.398;2022-12-16T06:55:15;2.10;99.90
29237;DHT22;16266;50.866;4.398;2022-12-16T06:57:59;2.00;99.90
29237;DHT22;16266;50.866;4.398;2022-12-16T07:00:44;1.90;99.90
29237;DHT22;16266;50.866;4.398;2022-12-16T07:03:28;1.80;99.90
29237;DHT22;16266;50.866;4.398;2022-12-16T07:06:12;1.80;99.90
29237;DHT22;16266;50.866;4.398;2022-12-16T07:08:56;2.00;99.90
29237;DHT22;16266;50.866;4.398;2022-12-16T07:11:40;2.30;99.90
29237;DHT22;16266;50.866;4.398;2022-12-16T07:14:24;2.40;99.90
29237;DHT22;16266;50.866;4.398;2022-12-16T07:17:09;2.60;99.90
29237;DHT22;16266;50.866;4.398;2022-12-16T07:19:53;2.70;99.90
29237;DHT22;16266;50.866;4.398;2022-12-16T07:22:41;2.90;99.90
29237;DHT22;16266;50.866;4.398;2022-12-16T07:25:26;3.00;99.90
29237;DHT22;16266;50.866;4.398;2022-12-16T07:28:10;3.00;99.90
29237;DHT22;16266;50.866;4.398;2022-12-16T07:30:54;3.00;99.90
29237;DHT22;16266;50.866;4.398;2022-12-16T07:33:38;3.10;99.90
29237;DHT22;16266;50.866;4.398;2022-12-16T07:36:22;3.10;99.90
29237;DHT22;16266;50.866;4.398;2022-12-16T07:39:06;3.10;99.90
29237;DHT22;16266;50.866;4.398;2022-12-16T07:41:50;3.10;99.90
29237;DHT22;16266;50.866;4.398;2022-12-16T07:44:35;3.00;99.90
29237;DHT22;16266;50.866;4.398;2022-12-16T07:47:20;3.00;99.90
29237;DHT22;16266;50.866;4.398;2022-12-16T07:50:05;3.20;99.90
29237;DHT22;16266;50.866;4.398;2022-12-16T07:52:57;3.20;99.90
29237;DHT22;16266;50.866;4.398;2022-12-16T07:55:43;3.10;99.90
29237;DHT22;16266;50.866;4.398;2022-12-16T07:58:27;3.20;99.90
29237;DHT22;16266;50.866;4.398;2022-12-16T08:01:12;3.10;99.90
29237;DHT22;16266;50.866;4.398;2022-12-16T08:03:56;3.00;99.90
29237;DHT22;16266;50.866;4.398;2022-12-16T08:06:42;3.10;99.90
29237;DHT22;16266;50.866;4.398;2022-12-16T08:09:26;3.00;99.90
29237;DHT22;16266;50.866;4.398;2022-12-16T08:12:10;3.20;99.90
29237;DHT22;16266;50.866;4.398;2022-12-16T08:14:55;3.20;99.90
29237;DHT22;16266;50.866;4.398;2022-12-16T08:17:51;3.10;99.90
29237;DHT22;16266;50.866;4.398;2022-12-16T08:20:35;3.10;99.90
29237;DHT22;16266;50.866;4.398;2022-12-16T08:23:20;2.90;99.90
29237;DHT22;16266;50.866;4.398;2022-12-16T08:26:06;2.70;99.90
29237;DHT22;16266;50.866;4.398;2022-12-16T08:28:51;2.60;99.90
29237;DHT22;16266;50.866;4.398;2022-12-16T08:31:52;2.50;99.90
29237;DHT22;16266;50.866;4.398;2022-12-16T08:37:35;2.80;99.90
29237;DHT22;16266;50.866;4.398;2022-12-16T08:40:19;2.80;99.90
29237;DHT22;16266;50.866;4.398;2022-12-16T08:43:33;2.70;99.90
29237;DHT22;16266;50.866;4.398;2022-12-16T08:46:19;2.70;99.90
29237;DHT22;16266;50.866;4.398;2022-12-16T08:49:49;2.70;99.90
29237;DHT22;16266;50.866;4.398;2022-12-16T08:52:36;2.60;99.90
29237;DHT22;16266;50.866;4.398;2022-12-16T08:55:26;2.60;99.90
29237;DHT22;16266;50.866;4.398;2022-12-16T08:58:19;2.90;99.90
29237;DHT22;16266;50.866;4.398;2022-12-16T09:01:04;3.00;99.90
29237;DHT22;16266;50.866;4.398;2022-12-16T09:03:48;3.20;99.90
29237;DHT22;16266;50.866;4.398;2022-12-16T09:06:32;3.30;99.90
29237;DHT22;16266;50.866;4.398;2022-12-16T09:09:18;3.60;99.90
29237;DHT22;16266;50.866;4.398;2022-12-16T09:12:03;3.40;99.90
29237;DHT22;16266;50.866;4.398;2022-12-16T09:14:47;3.50;99.90
29237;DHT22;16266;50.866;4.398;2022-12-16T09:17:31;3.50;99.90
29237;DHT22;16266;50.866;4.398;2022-12-16T09:20:16;3.70;99.90
29237;DHT22;16266;50.866;4.398;2022-12-16T09:23:05;3.60;99.90
29237;DHT22;16266;50.866;4.398;2022-12-16T09:25:50;3.60;99.90
29237;DHT22;16266;50.866;4.398;2022-12-16T09:28:42;3.70;99.90
29237;DHT22;16266;50.866;4.398;2022-12-16T09:31:31;3.70;99.90
29237;DHT22;16266;50.866;4.398;2022-12-16T09:34:15;3.70;99.90
29237;DHT22;16266;50.866;4.398;2022-12-16T09:36:59;3.90;99.90
29237;DHT22;16266;50.866;4.398;2022-12-16T09:39:45;4.10;99.90
29237;DHT22;16266;50.866;4.398;2022-12-16T09:42:57;3.90;99.90
29237;DHT22;16266;50.866;4.398;2022-12-16T09:45:58;4.00;99.90
29237;DHT22;16266;50.866;4.398;2022-12-16T09:51:35;4.30;99.90
29237;DHT22;16266;50.866;4.398;2022-12-16T09:54:25;4.30;99.90
29237;DHT22;16266;50.866;4.398;2022-12-16T09:57:12;4.00;99.90
29237;DHT22;16266;50.866;4.398;2022-12-16T10:00:12;3.70;99.90
29237;DHT22;16266;50.866;4.398;2022-12-16T10:03:18;3.50;99.90
29237;DHT22;16266;50.866;4.398;2022-12-16T10:06:21;3.60;99.90
29237;DHT22;16266;50.866;4.398;2022-12-16T10:12:47;3.80;99.90
29237;DHT22;16266;50.866;4.398;2022-12-16T10:15:37;3.80;99.90
29237;DHT22;16266;50.866;4.398;2022-12-16T10:21:49;3.70;99.90
29237;DHT22;16266;50.866;4.398;2022-12-16T10:27:43;3.80;99.90
29237;DHT22;16266;50.866;4.398;2022-12-16T10:30:28;4.20;99.90
29237;DHT22;16266;50.866;4.398;2022-12-16T10:33:14;4.60;99.90
29237;DHT22;16266;50.866;4.398;2022-12-16T10:35:58;4.70;99.90
29237;DHT22;16266;50.866;4.398;2022-12-16T10:38:51;4.50;99.90
29237;DHT22;16266;50.866;4.398;2022-12-16T10:41:39;4.50;99.90
29237;DHT22;16266;50.866;4.398;2022-12-16T10:44:24;4.30;99.90
29237;DHT22;16266;50.866;4.398;2022-12-16T10:47:11;4.10;99.90
29237;DHT22;16266;50.866;4.398;2022-12-16T10:49:55;4.40;99.90
29237;DHT22;16266;50.866;4.398;2022-12-16T10:52:57;4.70;99.90
29237;DHT22;16266;50.866;4.398;2022-12-16T10:58:52;7.10;99.90
29237;DHT22;16266;50.866;4.398;2022-12-16T11:01:37;7.80;99.90
29237;DHT22;16266;50.866;4.398;2022-12-16T11:04:32;8.40;99.90
29237;DHT22;16266;50.866;4.398;2022-12-16T11:07:37;8.90;99.90
29237;DHT22;16266;50.866;4.398;2022-12-16T11:10:40;7.60;99.90
29237;DHT22;16266;50.866;4.398;2022-12-16T11:16:20;7.60;99.90
29237;DHT22;16266;50.866;4.398;2022-12-16T11:19:08;7.40;99.90
29237;DHT22;16266;50.866;4.398;2022-12-16T11:22:06;6.80;99.90
29237;DHT22;16266;50.866;4.398;2022-12-16T11:25:17;6.30;99.90
29237;DHT22;16266;50.866;4.398;2022-12-16T11:28:20;6.10;99.90
29237;DHT22;16266;50.866;4.398;2022-12-16T11:31:07;6.70;99.90
29237;DHT22;16266;50.866;4.398;2022-12-16T11:33:54;9.10;99.90
29237;DHT22;16266;50.866;4.398;2022-12-16T11:36:41;10.00;99.90
29237;DHT22;16266;50.866;4.398;2022-12-16T11:39:28;10.20;99.90
29237;DHT22;16266;50.866;4.398;2022-12-16T11:42:20;10.60;99.90
29237;DHT22;16266;50.866;4.398;2022-12-16T11:45:06;10.40;99.90
29237;DHT22;16266;50.866;4.398;2022-12-16T11:51:04;10.10;99.90
29237;DHT22;16266;50.866;4.398;2022-12-16T11:54:49;10.10;99.90
29237;DHT22;16266;50.866;4.398;2022-12-16T11:57:34;10.50;99.90
29237;DHT22;16266;50.866;4.398;2022-12-16T12:00:19;10.70;99.90
29237;DHT22;16266;50.866;4.398;2022-12-16T12:03:13;10.50;99.90
29237;DHT22;16266;50.866;4.398;2022-12-16T12:09:16;12.00;99.90
29237;DHT22;16266;50.866;4.398;2022-12-16T12:12:15;12.00;99.90
29237;DHT22;16266;50.866;4.398;2022-12-16T12:15:40;11.80;99.90
29237;DHT22;16266;50.866;4.398;2022-12-16T12:21:43;12.40;99.90
29237;DHT22;16266;50.866;4.398;2022-12-16T12:24:35;12.40;99.90
29237;DHT22;16266;50.866;4.398;2022-12-16T12:27:32;12.10;99.90
29237;DHT22;16266;50.866;4.398;2022-12-16T12:30:19;11.60;99.90
29237;DHT22;16266;50.866;4.398;2022-12-16T12:57:01;6.10;99.90
29237;DHT22;16266;50.866;4.398;2022-12-16T13:03:04;5.40;99.90
29237;DHT22;16266;50.866;4.398;2022-12-16T13:05:50;5.00;99.90
29237;DHT22;16266;50.866;4.398;2022-12-16T13:08:55;4.80;99.90
29237;DHT22;16266;50.866;4.398;2022-12-16T13:15:07;4.40;99.90
29237;DHT22;16266;50.866;4.398;2022-12-16T13:20:42;4.30;99.90
29237;DHT22;16266;50.866;4.398;2022-12-16T13:26:15;4.40;99.90
29237;DHT22;16266;50.866;4.398;2022-12-16T13:29:24;4.60;99.90
29237;DHT22;16266;50.866;4.398;2022-12-16T13:32:20;4.50;99.90
29237;DHT22;16266;50.866;4.398;2022-12-16T13:35:23;4.50;99.90
29237;DHT22;16266;50.866;4.398;2022-12-16T13:44:08;4.20;99.90
29237;DHT22;16266;50.866;4.398;2022-12-16T13:46:54;4.30;99.90
29237;DHT22;16266;50.866;4.398;2022-12-16T13:49:48;4.30;99.90
29237;DHT22;16266;50.866;4.398;2022-12-16T13:55:37;4.40;99.90
29237;DHT22;16266;50.866;4.398;2022-12-16T13:58:42;4.40;99.90
29237;DHT22;16266;50.866;4.398;2022-12-16T14:01:55;4.20;99.90
29237;DHT22;16266;50.866;4.398;2022-12-16T14:07:34;4.10;99.90
29237;DHT22;16266;50.866;4.398;2022-12-16T14:10:27;4.20;99.90
29237;DHT22;16266;50.866;4.398;2022-12-16T14:13:27;4.30;99.90
29237;DHT22;16266;50.866;4.398;2022-12-16T14:19:31;4.30;99.90
29237;DHT22;16266;50.866;4.398;2022-12-16T14:25:24;4.30;99.90
29237;DHT22;16266;50.866;4.398;2022-12-16T14:28:34;4.40;99.90
29237;DHT22;16266;50.866;4.398;2022-12-16T14:31:27;4.30;99.90
29237;DHT22;16266;50.866;4.398;2022-12-16T14:34:24;4.30;99.90
29237;DHT22;16266;50.866;4.398;2022-12-16T14:39:56;4.20;99.90
29237;DHT22;16266;50.866;4.398;2022-12-16T14:42:41;4.10;99.90
29237;DHT22;16266;50.866;4.398;2022-12-16T14:45:34;4.10;99.90
29237;DHT22;16266;50.866;4.398;2022-12-16T14:48:29;4.00;99.90
29237;DHT22;16266;50.866;4.398;2022-12-16T14:57:07;3.80;99.90
29237;DHT22;16266;50.866;4.398;2022-12-16T15:00:22;3.70;99.90
29237;DHT22;16266;50.866;4.398;2022-12-16T15:03:16;3.80;99.90
29237;DHT22;16266;50.866;4.398;2022-12-16T15:06:09;3.80;99.90
29237;DHT22;16266;50.866;4.398;2022-12-16T15:08:57;3.80;99.90
29237;DHT22;16266;50.866;4.398;2022-12-16T15:11:44;3.60;99.90
29237;DHT22;16266;50.866;4.398;2022-12-16T15:14:31;3.60;99.90
29237;DHT22;16266;50.866;4.398;2022-12-16T15:17:30;3.60;99.90
29237;DHT22;16266;50.866;4.398;2022-12-16T15:20:23;3.50;99.90
29237;DHT22;16266;50.866;4.398;2022-12-16T15:26:00;3.50;99.90
29237;DHT22;16266;50.866;4.398;2022-12-16T15:28:44;3.40;99.90
29237;DHT22;16266;50.866;4.398;2022-12-16T15:31:34;3.30;99.90
29237;DHT22;16266;50.866;4.398;2022-12-16T15:37:02;3.20;99.90
29237;DHT22;16266;50.866;4.398;2022-12-16T15:39:46;3.10;99.90
29237;DHT22;16266;50.866;4.398;2022-12-16T15:42:32;3.00;99.90
29237;DHT22;16266;50.866;4.398;2022-12-16T15:45:35;2.90;99.90
29237;DHT22;16266;50.866;4.398;2022-12-16T15:48:34;2.90;99.90
29237;DHT22;16266;50.866;4.398;2022-12-16T15:51:27;2.80;99.90
29237;DHT22;16266;50.866;4.398;2022-12-16T15:54:20;2.70;99.90
29237;DHT22;16266;50.866;4.398;2022-12-16T15:57:34;2.70;99.90
29237;DHT22;16266;50.866;4.398;2022-12-16T16:06:00;2.50;99.90
29237;DHT22;16266;50.866;4.398;2022-12-16T16:08:50;2.50;99.90
29237;DHT22;16266;50.866;4.398;2022-12-16T16:11:37;2.40;99.90
29237;DHT22;16266;50.866;4.398;2022-12-16T16:14:25;2.30;99.90
29237;DHT22;16266;50.866;4.398;2022-12-16T16:17:20;2.20;99.90
29237;DHT22;16266;50.866;4.398;2022-12-16T16:20:08;2.20;99.90
29237;DHT22;16266;50.866;4.398;2022-12-16T16:22:58;2.20;99.90
29237;DHT22;16266;50.866;4.398;2022-12-16T16:25:44;2.20;99.90
29237;DHT22;16266;50.866;4.398;2022-12-16T16:28:28;2.10;99.90
29237;DHT22;16266;50.866;4.398;2022-12-16T16:31:15;2.10;99.90
29237;DHT22;16266;50.866;4.398;2022-12-16T16:34:09;2.10;99.90
29237;DHT22;16266;50.866;4.398;2022-12-16T16:36:56;2.20;99.90
29237;DHT22;16266;50.866;4.398;2022-12-16T16:39:49;2.10;99.90
29237;DHT22;16266;50.866;4.398;2022-12-16T16:42:33;2.10;99.90
29237;DHT22;16266;50.866;4.398;2022-12-16T16:45:18;2.00;99.90
29237;DHT22;16266;50.866;4.398;2022-12-16T16:48:13;2.00;99.90
29237;DHT22;16266;50.866;4.398;2022-12-16T16:50:59;2.00;99.90
29237;DHT22;16266;50.866;4.398;2022-12-16T16:53:44;2.00;99.90
29237;DHT22;16266;50.866;4.398;2022-12-16T16:56:32;2.00;99.90
29237;DHT22;16266;50.866;4.398;2022-12-16T16:59:16;2.00;99.90
29237;DHT22;16266;50.866;4.398;2022-12-16T17:02:01;2.00;99.90
29237;DHT22;16266;50.866;4.398;2022-12-16T17:04:45;1.90;99.90
29237;DHT22;16266;50.866;4.398;2022-12-16T17:07:29;1.90;99.90
29237;DHT22;16266;50.866;4.398;2022-12-16T17:10:14;1.90;99.90
29237;DHT22;16266;50.866;4.398;2022-12-16T17:12:59;1.80;99.90
29237;DHT22;16266;50.866;4.398;2022-12-16T17:15:43;1.90;99.90
29237;DHT22;16266;50.866;4.398;2022-12-16T17:18:27;1.70;99.90
29237;DHT22;16266;50.866;4.398;2022-12-16T17:21:11;1.80;99.90
29237;DHT22;16266;50.866;4.398;2022-12-16T17:23:55;1.90;99.90
29237;DHT22;16266;50.866;4.398;2022-12-16T17:26:43;1.90;99.90
29237;DHT22;16266;50.866;4.398;2022-12-16T17:29:28;1.80;99.90
29237;DHT22;16266;50.866;4.398;2022-12-16T17:32:13;1.80;99.90
29237;DHT22;16266;50.866;4.398;2022-12-16T17:34:57;1.70;99.90
29237;DHT22;16266;50.866;4.398;2022-12-16T17:37:42;1.70;99.90
29237;DHT22;16266;50.866;4.398;2022-12-16T17:40:26;1.60;99.90
29237;DHT22;16266;50.866;4.398;2022-12-16T17:43:11;1.50;99.90
29237;DHT22;16266;50.866;4.398;2022-12-16T17:46:06;1.60;99.90
29237;DHT22;16266;50.866;4.398;2022-12-16T17:48:56;1.60;99.90
29237;DHT22;16266;50.866;4.398;2022-12-16T17:51:42;1.50;99.90
29237;DHT22;16266;50.866;4.398;2022-12-16T17:54:26;1.70;99.90
29237;DHT22;16266;50.866;4.398;2022-12-16T17:57:10;1.80;99.90
29237;DHT22;16266;50.866;4.398;2022-12-16T17:59:55;1.70;99.90
29237;DHT22;16266;50.866;4.398;2022-12-16T18:02:39;1.80;99.90
29237;DHT22;16266;50.866;4.398;2022-12-16T18:05:24;1.80;99.90
29237;DHT22;16266;50.866;4.398;2022-12-16T18:08:09;1.70;99.90
29237;DHT22;16266;50.866;4.398;2022-12-16T18:10:55;1.70;99.90
29237;DHT22;16266;50.866;4.398;2022-12-16T18:13:39;1.50;99.90
29237;DHT22;16266;50.866;4.398;2022-12-16T18:16:24;1.50;99.90
29237;DHT22;16266;50.866;4.398;2022-12-16T18:19:13;1.60;99.90
29237;DHT22;16266;50.866;4.398;2022-12-16T18:21:57;1.60;99.90
29237;DHT22;16266;50.866;4.398;2022-12-16T18:24:41;1.60;99.90
29237;DHT22;16266;50.866;4.398;2022-12-16T18:27:26;1.50;99.90
29237;DHT22;16266;50.866;4.398;2022-12-16T18:30:10;1.40;99.90
29237;DHT22;16266;50.866;4.398;2022-12-16T18:32:55;1.30;99.90
29237;DHT22;16266;50.866;4.398;2022-12-16T18:35:39;1.30;99.90
29237;DHT22;16266;50.866;4.398;2022-12-16T18:38:23;1.20;99.90
29237;DHT22;16266;50.866;4.398;2022-12-16T18:41:20;1.20;99.90
29237;DHT22;16266;50.866;4.398;2022-12-16T18:44:13;1.10;99.90
29237;DHT22;16266;50.866;4.398;2022-12-16T18:46:58;1.10;99.90
29237;DHT22;16266;50.866;4.398;2022-12-16T18:49:45;1.20;99.90
29237;DHT22;16266;50.866;4.398;2022-12-16T18:52:32;1.20;99.90
29237;DHT22;16266;50.866;4.398;2022-12-16T18:55:17;1.30;99.90
29237;DHT22;16266;50.866;4.398;2022-12-16T18:58:01;1.40;99.90
29237;DHT22;16266;50.866;4.398;2022-12-16T19:00:45;1.30;99.90
29237;DHT22;16266;50.866;4.398;2022-12-16T19:03:30;1.30;99.90
29237;DHT22;16266;50.866;4.398;2022-12-16T19:06:14;1.30;99.90
29237;DHT22;16266;50.866;4.398;2022-12-16T19:08:59;1.20;99.90
29237;DHT22;16266;50.866;4.398;2022-12-16T19:11:43;1.10;99.90
29237;DHT22;16266;50.866;4.398;2022-12-16T19:14:27;1.20;99.90
29237;DHT22;16266;50.866;4.398;2022-12-16T19:17:12;1.20;99.90
29237;DHT22;16266;50.866;4.398;2022-12-16T19:20:10;1.30;99.90
29237;DHT22;16266;50.866;4.398;2022-12-16T19:22:55;1.30;99.90
29237;DHT22;16266;50.866;4.398;2022-12-16T19:25:40;1.20;99.90
29237;DHT22;16266;50.866;4.398;2022-12-16T19:28:25;1.10;99.90
29237;DHT22;16266;50.866;4.398;2022-12-16T19:31:10;1.10;99.90
29237;DHT22;16266;50.866;4.398;2022-12-16T19:33:55;1.10;99.90
29237;DHT22;16266;50.866;4.398;2022-12-16T19:36:40;1.00;99.90
29237;DHT22;16266;50.866;4.398;2022-12-16T19:39:25;1.10;99.90
29237;DHT22;16266;50.866;4.398;2022-12-16T19:42:12;1.00;99.90
29237;DHT22;16266;50.866;4.398;2022-12-16T19:44:56;1.00;99.90
29237;DHT22;16266;50.866;4.398;2022-12-16T19:47:42;1.00;99.90
29237;DHT22;16266;50.866;4.398;2022-12-16T19:50:26;1.00;99.90
29237;DHT22;16266;50.866;4.398;2022-12-16T19:53:12;0.90;99.90
29237;DHT22;16266;50.866;4.398;2022-12-16T19:55:58;1.00;99.90
29237;DHT22;16266;50.866;4.398;2022-12-16T19:58:43;1.00;99.90
29237;DHT22;16266;50.866;4.398;2022-12-16T20:01:29;1.00;99.90